Huvudsida
METAR-TAF:

METAR-TAF

Flygplatser :

Şanlıurfa, Turkiet

latitud: 37-27N, longitud: 38-54E, höjd: 823 m

Aktuellt väderrapport

Denna rapport gjordes för 32 minuter sedan, klockan 09:20 UTC
Vind 6 kt från väst, varierande mellan sydväst och nord
Temperatur 27°C
Fuktighet 13%
Tryck 1016 hPa
Sikt 10 km eller mer
Inga moln under 1 500 m eller inga cumulonimbus

METAR: LTCS 230920Z 27006KT 220V010 CAVOK 27/M04 Q1016 RMK RWY22 27007KT 230V350

Tid: 12:52 (09:52 UTC)

Väderprognos

Denna rapport gjordes för 5 timmar och 12 minuter sedan, klockan 04:40 UTC
Prognos gäller från 23 kl. 06 UTC till 24 kl. 06 UTC
Vind 2 kt varierande vindriktning
Sikt 10 km eller mer
Inga moln under 1 500 m eller inga cumulonimbus
Temporärt
från 23 kl. 11 UTC till 23 kl. 15 UTC
Vind 12 kt från väst/sydväst
Temporärt
från 23 kl. 17 UTC till 23 kl. 21 UTC
Vind 12 kt från väst/sydväst

TAF: LTCS 230440Z 2306/2406 VRB02KT CAVOK TEMPO 2311/2315 25012KT TEMPO 2317/2321 25012KT

Aktuella väderrapporter och prognoser från 4000 flygplatser (METAR- och TAF-rapporter).

De tillgängliga stationerna syns som gula och röda prickar på kartan.

För musen över prickarna för att se namnen på stationerna.

Klicka sedan för att få väderrapporter och prognoser.

För att ändra kartan: Klicka på de gröna knapparna med ett svart kors på för att zooma in; den gröna knappen med ett streck på för att zooma ut; eller på de gröna pilarna för angränsande kartor.


METAR-TAF: